Uribelarrea, Argentina
Current Conditions -  °F | °C
As of 8:00 PM on Tuesday 25 Nov 2014 (Local Time) from SAEZ Reporting Station
Few Clouds Few Clouds  
Wind Chill: 68°   Ceiling: Unl
Heat Index: 68°   Visibility: 6mi
Dew Point: 50°   Wind: 8mph
Humidity: 52%   Direction: 70°ENE
Pressure: 29.91"   Gusts: NA
Location:  35.13°S, 58.89°W
Report Text: SAEZ 252300Z 07007KT 9999 FEW042 20/10 Q1013
Loading
Personal Weather Stations






























Interactive Weather Map New forecast layout! Learn more

10-Day Weather Forecast

Advertisements
Track Severe Weather on mobile